sensor_id;sensor_type;location;lat;lon;timestamp;P1;durP1;ratioP1;P2;durP2;ratioP2
41921;SDS011;27609;51.002;5.354;2023-08-21T00:01:20;3.58;;;1.80;;
41921;SDS011;27609;51.002;5.354;2023-08-21T00:03:46;5.25;;;1.98;;
41921;SDS011;27609;51.002;5.354;2023-08-21T00:06:12;8.68;;;2.55;;
41921;SDS011;27609;51.002;5.354;2023-08-21T00:08:37;6.68;;;2.28;;
41921;SDS011;27609;51.002;5.354;2023-08-21T00:11:03;8.90;;;2.53;;
41921;SDS011;27609;51.002;5.354;2023-08-21T00:13:29;6.45;;;2.10;;
41921;SDS011;27609;51.002;5.354;2023-08-21T00:15:54;10.85;;;2.55;;
41921;SDS011;27609;51.002;5.354;2023-08-21T00:18:20;4.93;;;2.22;;
41921;SDS011;27609;51.002;5.354;2023-08-21T00:20:46;7.85;;;2.33;;
41921;SDS011;27609;51.002;5.354;2023-08-21T00:23:12;10.35;;;2.33;;
41921;SDS011;27609;51.002;5.354;2023-08-21T00:25:38;6.00;;;2.33;;
41921;SDS011;27609;51.002;5.354;2023-08-21T00:28:03;8.05;;;2.60;;
41921;SDS011;27609;51.002;5.354;2023-08-21T00:30:29;8.55;;;2.88;;
41921;SDS011;27609;51.002;5.354;2023-08-21T00:32:55;9.13;;;2.50;;
41921;SDS011;27609;51.002;5.354;2023-08-21T00:35:21;9.10;;;1.85;;
41921;SDS011;27609;51.002;5.354;2023-08-21T00:37:46;5.85;;;2.20;;
41921;SDS011;27609;51.002;5.354;2023-08-21T00:40:12;13.70;;;2.42;;
41921;SDS011;27609;51.002;5.354;2023-08-21T00:42:38;6.10;;;2.35;;
41921;SDS011;27609;51.002;5.354;2023-08-21T00:45:04;5.72;;;2.20;;
41921;SDS011;27609;51.002;5.354;2023-08-21T00:47:33;4.97;;;2.00;;
41921;SDS011;27609;51.002;5.354;2023-08-21T00:49:59;6.78;;;2.25;;
41921;SDS011;27609;51.002;5.354;2023-08-21T00:52:25;5.43;;;1.98;;
41921;SDS011;27609;51.002;5.354;2023-08-21T00:54:51;7.97;;;2.95;;
41921;SDS011;27609;51.002;5.354;2023-08-21T00:57:17;6.03;;;1.60;;
41921;SDS011;27609;51.002;5.354;2023-08-21T00:59:44;5.57;;;2.30;;
41921;SDS011;27609;51.002;5.354;2023-08-21T01:02:10;5.88;;;1.85;;
41921;SDS011;27609;51.002;5.354;2023-08-21T01:04:36;5.55;;;2.05;;
41921;SDS011;27609;51.002;5.354;2023-08-21T01:07:02;9.38;;;2.40;;
41921;SDS011;27609;51.002;5.354;2023-08-21T01:09:36;9.95;;;1.90;;
41921;SDS011;27609;51.002;5.354;2023-08-21T01:17:33;5.28;;;1.63;;
41921;SDS011;27609;51.002;5.354;2023-08-21T01:20:01;6.30;;;2.30;;
41921;SDS011;27609;51.002;5.354;2023-08-21T01:22:34;13.88;;;2.03;;
41921;SDS011;27609;51.002;5.354;2023-08-21T01:25:01;6.55;;;2.35;;
41921;SDS011;27609;51.002;5.354;2023-08-21T01:27:27;5.07;;;1.73;;
41921;SDS011;27609;51.002;5.354;2023-08-21T01:29:53;5.78;;;2.25;;
41921;SDS011;27609;51.002;5.354;2023-08-21T01:35:10;7.93;;;2.75;;
41921;SDS011;27609;51.002;5.354;2023-08-21T01:37:36;6.38;;;1.80;;
41921;SDS011;27609;51.002;5.354;2023-08-21T01:40:03;8.23;;;3.30;;
41921;SDS011;27609;51.002;5.354;2023-08-21T01:42:30;5.45;;;2.50;;
41921;SDS011;27609;51.002;5.354;2023-08-21T01:44:55;8.02;;;2.33;;
41921;SDS011;27609;51.002;5.354;2023-08-21T01:47:21;4.00;;;2.30;;
41921;SDS011;27609;51.002;5.354;2023-08-21T01:49:47;5.88;;;1.80;;
41921;SDS011;27609;51.002;5.354;2023-08-21T01:52:12;5.40;;;1.95;;
41921;SDS011;27609;51.002;5.354;2023-08-21T01:54:38;6.03;;;2.45;;
41921;SDS011;27609;51.002;5.354;2023-08-21T01:57:04;7.10;;;2.10;;
41921;SDS011;27609;51.002;5.354;2023-08-21T01:59:30;5.20;;;2.33;;
41921;SDS011;27609;51.002;5.354;2023-08-21T02:01:55;7.20;;;2.17;;
41921;SDS011;27609;51.002;5.354;2023-08-21T02:04:21;7.88;;;1.92;;
41921;SDS011;27609;51.002;5.354;2023-08-21T02:06:47;4.70;;;2.42;;
41921;SDS011;27609;51.002;5.354;2023-08-21T02:09:12;8.68;;;2.70;;
41921;SDS011;27609;51.002;5.354;2023-08-21T02:11:38;6.70;;;2.47;;
41921;SDS011;27609;51.002;5.354;2023-08-21T02:14:04;5.60;;;1.90;;
41921;SDS011;27609;51.002;5.354;2023-08-21T02:16:29;13.73;;;2.28;;
41921;SDS011;27609;51.002;5.354;2023-08-21T02:18:55;6.63;;;2.40;;
41921;SDS011;27609;51.002;5.354;2023-08-21T02:21:21;5.38;;;1.80;;
41921;SDS011;27609;51.002;5.354;2023-08-21T02:23:47;12.05;;;2.47;;
41921;SDS011;27609;51.002;5.354;2023-08-21T02:26:13;6.38;;;2.60;;
41921;SDS011;27609;51.002;5.354;2023-08-21T02:28:38;11.43;;;2.90;;
41921;SDS011;27609;51.002;5.354;2023-08-21T02:31:04;7.13;;;2.50;;
41921;SDS011;27609;51.002;5.354;2023-08-21T02:33:30;7.75;;;2.67;;
41921;SDS011;27609;51.002;5.354;2023-08-21T02:35:56;10.23;;;2.60;;
41921;SDS011;27609;51.002;5.354;2023-08-21T02:38:21;7.82;;;2.58;;
41921;SDS011;27609;51.002;5.354;2023-08-21T02:40:47;5.38;;;2.45;;
41921;SDS011;27609;51.002;5.354;2023-08-21T02:43:13;5.47;;;2.15;;
41921;SDS011;27609;51.002;5.354;2023-08-21T02:45:41;8.63;;;2.60;;
41921;SDS011;27609;51.002;5.354;2023-08-21T02:48:07;7.50;;;2.40;;
41921;SDS011;27609;51.002;5.354;2023-08-21T02:50:32;6.47;;;2.30;;
41921;SDS011;27609;51.002;5.354;2023-08-21T02:52:58;5.28;;;2.20;;
41921;SDS011;27609;51.002;5.354;2023-08-21T02:55:23;5.28;;;2.28;;
41921;SDS011;27609;51.002;5.354;2023-08-21T02:57:49;5.03;;;2.10;;
41921;SDS011;27609;51.002;5.354;2023-08-21T03:00:15;6.45;;;2.33;;
41921;SDS011;27609;51.002;5.354;2023-08-21T03:02:41;8.85;;;1.98;;
41921;SDS011;27609;51.002;5.354;2023-08-21T03:05:07;6.22;;;2.10;;
41921;SDS011;27609;51.002;5.354;2023-08-21T03:07:34;7.55;;;2.70;;
41921;SDS011;27609;51.002;5.354;2023-08-21T03:09:59;4.70;;;1.75;;
41921;SDS011;27609;51.002;5.354;2023-08-21T03:12:27;7.82;;;2.53;;
41921;SDS011;27609;51.002;5.354;2023-08-21T03:14:52;9.43;;;2.00;;
41921;SDS011;27609;51.002;5.354;2023-08-21T03:17:18;5.85;;;2.25;;
41921;SDS011;27609;51.002;5.354;2023-08-21T03:19:44;6.57;;;2.75;;
41921;SDS011;27609;51.002;5.354;2023-08-21T03:22:09;6.32;;;2.28;;
41921;SDS011;27609;51.002;5.354;2023-08-21T03:24:35;4.93;;;2.25;;
41921;SDS011;27609;51.002;5.354;2023-08-21T03:27:01;6.32;;;2.00;;
41921;SDS011;27609;51.002;5.354;2023-08-21T03:29:27;8.82;;;2.15;;
41921;SDS011;27609;51.002;5.354;2023-08-21T03:31:53;5.22;;;2.22;;
41921;SDS011;27609;51.002;5.354;2023-08-21T03:34:19;2.35;;;1.67;;
41921;SDS011;27609;51.002;5.354;2023-08-21T03:36:45;9.00;;;2.50;;
41921;SDS011;27609;51.002;5.354;2023-08-21T03:39:10;9.63;;;2.92;;
41921;SDS011;27609;51.002;5.354;2023-08-21T03:41:36;8.63;;;2.50;;
41921;SDS011;27609;51.002;5.354;2023-08-21T03:44:02;5.90;;;2.25;;
41921;SDS011;27609;51.002;5.354;2023-08-21T03:46:28;4.50;;;1.75;;
41921;SDS011;27609;51.002;5.354;2023-08-21T03:48:54;8.65;;;2.55;;
41921;SDS011;27609;51.002;5.354;2023-08-21T03:51:19;9.93;;;3.10;;
41921;SDS011;27609;51.002;5.354;2023-08-21T03:53:45;10.82;;;3.03;;
41921;SDS011;27609;51.002;5.354;2023-08-21T03:56:11;13.40;;;3.20;;
41921;SDS011;27609;51.002;5.354;2023-08-21T03:58:36;12.35;;;4.10;;
41921;SDS011;27609;51.002;5.354;2023-08-21T04:01:02;9.45;;;2.90;;
41921;SDS011;27609;51.002;5.354;2023-08-21T04:03:27;8.65;;;2.97;;
41921;SDS011;27609;51.002;5.354;2023-08-21T04:05:53;8.90;;;2.72;;
41921;SDS011;27609;51.002;5.354;2023-08-21T04:08:21;8.68;;;2.30;;
41921;SDS011;27609;51.002;5.354;2023-08-21T04:10:47;6.47;;;2.67;;
41921;SDS011;27609;51.002;5.354;2023-08-21T04:13:13;5.82;;;2.25;;
41921;SDS011;27609;51.002;5.354;2023-08-21T04:15:38;4.00;;;2.17;;
41921;SDS011;27609;51.002;5.354;2023-08-21T04:18:09;9.23;;;2.28;;
41921;SDS011;27609;51.002;5.354;2023-08-21T04:20:34;6.90;;;2.85;;
41921;SDS011;27609;51.002;5.354;2023-08-21T04:23:00;8.18;;;2.67;;
41921;SDS011;27609;51.002;5.354;2023-08-21T04:25:26;7.25;;;2.42;;
41921;SDS011;27609;51.002;5.354;2023-08-21T04:27:51;5.10;;;2.22;;
41921;SDS011;27609;51.002;5.354;2023-08-21T04:30:17;5.95;;;2.22;;
41921;SDS011;27609;51.002;5.354;2023-08-21T04:32:43;8.60;;;2.63;;
41921;SDS011;27609;51.002;5.354;2023-08-21T04:35:08;8.20;;;2.78;;
41921;SDS011;27609;51.002;5.354;2023-08-21T04:37:34;4.70;;;2.35;;
41921;SDS011;27609;51.002;5.354;2023-08-21T04:40:02;5.57;;;2.45;;
41921;SDS011;27609;51.002;5.354;2023-08-21T04:42:28;6.30;;;2.80;;
41921;SDS011;27609;51.002;5.354;2023-08-21T04:44:54;6.90;;;2.30;;
41921;SDS011;27609;51.002;5.354;2023-08-21T04:47:23;7.35;;;2.45;;
41921;SDS011;27609;51.002;5.354;2023-08-21T04:49:51;11.82;;;2.70;;
41921;SDS011;27609;51.002;5.354;2023-08-21T04:52:18;5.43;;;2.10;;
41921;SDS011;27609;51.002;5.354;2023-08-21T04:54:44;9.30;;;2.85;;
41921;SDS011;27609;51.002;5.354;2023-08-21T04:57:10;4.70;;;2.30;;
41921;SDS011;27609;51.002;5.354;2023-08-21T04:59:36;9.43;;;2.70;;
41921;SDS011;27609;51.002;5.354;2023-08-21T05:02:02;5.10;;;2.20;;
41921;SDS011;27609;51.002;5.354;2023-08-21T05:04:28;3.47;;;2.40;;
41921;SDS011;27609;51.002;5.354;2023-08-21T05:06:54;5.63;;;2.45;;
41921;SDS011;27609;51.002;5.354;2023-08-21T05:09:19;6.20;;;2.17;;
41921;SDS011;27609;51.002;5.354;2023-08-21T05:11:45;6.55;;;2.38;;
41921;SDS011;27609;51.002;5.354;2023-08-21T05:14:11;9.32;;;2.80;;
41921;SDS011;27609;51.002;5.354;2023-08-21T05:16:36;5.32;;;2.33;;
41921;SDS011;27609;51.002;5.354;2023-08-21T05:19:02;3.10;;;2.15;;
41921;SDS011;27609;51.002;5.354;2023-08-21T05:21:28;4.47;;;2.13;;
41921;SDS011;27609;51.002;5.354;2023-08-21T05:23:54;6.45;;;2.42;;
41921;SDS011;27609;51.002;5.354;2023-08-21T05:26:19;6.10;;;2.35;;
41921;SDS011;27609;51.002;5.354;2023-08-21T05:28:45;4.75;;;2.25;;
41921;SDS011;27609;51.002;5.354;2023-08-21T05:31:11;6.70;;;1.98;;
41921;SDS011;27609;51.002;5.354;2023-08-21T05:33:36;5.53;;;2.42;;
41921;SDS011;27609;51.002;5.354;2023-08-21T05:36:02;8.25;;;1.90;;
41921;SDS011;27609;51.002;5.354;2023-08-21T05:38:28;5.28;;;2.05;;
41921;SDS011;27609;51.002;5.354;2023-08-21T05:40:54;4.45;;;2.40;;
41921;SDS011;27609;51.002;5.354;2023-08-21T05:43:19;4.68;;;2.15;;
41921;SDS011;27609;51.002;5.354;2023-08-21T05:45:45;8.20;;;2.22;;
41921;SDS011;27609;51.002;5.354;2023-08-21T05:48:10;3.42;;;1.90;;
41921;SDS011;27609;51.002;5.354;2023-08-21T05:50:36;9.02;;;2.13;;
41921;SDS011;27609;51.002;5.354;2023-08-21T05:53:03;6.10;;;2.03;;
41921;SDS011;27609;51.002;5.354;2023-08-21T05:55:29;5.30;;;1.67;;
41921;SDS011;27609;51.002;5.354;2023-08-21T05:57:55;5.88;;;1.45;;
41921;SDS011;27609;51.002;5.354;2023-08-21T06:00:20;3.78;;;1.88;;
41921;SDS011;27609;51.002;5.354;2023-08-21T06:02:46;5.43;;;2.13;;
41921;SDS011;27609;51.002;5.354;2023-08-21T06:05:12;5.00;;;1.70;;
41921;SDS011;27609;51.002;5.354;2023-08-21T06:07:37;3.53;;;1.60;;
41921;SDS011;27609;51.002;5.354;2023-08-21T06:10:05;5.63;;;1.65;;
41921;SDS011;27609;51.002;5.354;2023-08-21T06:12:37;6.00;;;1.92;;
41921;SDS011;27609;51.002;5.354;2023-08-21T06:15:05;9.60;;;2.10;;
41921;SDS011;27609;51.002;5.354;2023-08-21T06:17:33;3.65;;;1.40;;
41921;SDS011;27609;51.002;5.354;2023-08-21T06:19:59;7.93;;;2.13;;
41921;SDS011;27609;51.002;5.354;2023-08-21T06:22:25;4.15;;;1.88;;
41921;SDS011;27609;51.002;5.354;2023-08-21T06:24:50;9.95;;;2.08;;
41921;SDS011;27609;51.002;5.354;2023-08-21T06:27:16;5.82;;;1.70;;
41921;SDS011;27609;51.002;5.354;2023-08-21T06:29:42;4.63;;;1.85;;
41921;SDS011;27609;51.002;5.354;2023-08-21T06:32:08;8.13;;;1.80;;
41921;SDS011;27609;51.002;5.354;2023-08-21T06:34:34;9.80;;;2.20;;
41921;SDS011;27609;51.002;5.354;2023-08-21T06:36:59;8.18;;;2.20;;
41921;SDS011;27609;51.002;5.354;2023-08-21T06:39:25;6.85;;;2.10;;
41921;SDS011;27609;51.002;5.354;2023-08-21T06:41:51;5.13;;;2.33;;
41921;SDS011;27609;51.002;5.354;2023-08-21T06:44:17;7.65;;;2.63;;
41921;SDS011;27609;51.002;5.354;2023-08-21T06:46:43;6.47;;;2.38;;
41921;SDS011;27609;51.002;5.354;2023-08-21T06:49:08;7.82;;;1.52;;
41921;SDS011;27609;51.002;5.354;2023-08-21T06:51:34;3.78;;;1.98;;
41921;SDS011;27609;51.002;5.354;2023-08-21T06:54:00;7.15;;;2.03;;
41921;SDS011;27609;51.002;5.354;2023-08-21T06:56:26;9.70;;;2.13;;
41921;SDS011;27609;51.002;5.354;2023-08-21T06:58:52;5.88;;;2.47;;
41921;SDS011;27609;51.002;5.354;2023-08-21T07:01:20;9.48;;;2.30;;
41921;SDS011;27609;51.002;5.354;2023-08-21T07:03:46;4.32;;;2.13;;
41921;SDS011;27609;51.002;5.354;2023-08-21T07:06:11;4.75;;;1.90;;
41921;SDS011;27609;51.002;5.354;2023-08-21T07:08:37;4.05;;;1.83;;
41921;SDS011;27609;51.002;5.354;2023-08-21T07:11:05;7.07;;;1.92;;
41921;SDS011;27609;51.002;5.354;2023-08-21T07:13:33;9.65;;;2.47;;
41921;SDS011;27609;51.002;5.354;2023-08-21T07:15:59;7.30;;;2.10;;
41921;SDS011;27609;51.002;5.354;2023-08-21T07:18:27;4.05;;;1.50;;
41921;SDS011;27609;51.002;5.354;2023-08-21T07:20:53;6.35;;;1.85;;
41921;SDS011;27609;51.002;5.354;2023-08-21T07:23:19;7.18;;;2.13;;
41921;SDS011;27609;51.002;5.354;2023-08-21T07:25:44;5.55;;;2.08;;
41921;SDS011;27609;51.002;5.354;2023-08-21T07:28:10;5.53;;;1.52;;
41921;SDS011;27609;51.002;5.354;2023-08-21T07:30:36;7.13;;;1.77;;
41921;SDS011;27609;51.002;5.354;2023-08-21T07:33:03;4.32;;;1.50;;
41921;SDS011;27609;51.002;5.354;2023-08-21T07:35:30;5.43;;;1.70;;
41921;SDS011;27609;51.002;5.354;2023-08-21T07:37:57;5.07;;;1.63;;
41921;SDS011;27609;51.002;5.354;2023-08-21T07:40:22;9.18;;;2.38;;
41921;SDS011;27609;51.002;5.354;2023-08-21T07:42:48;7.78;;;2.28;;
41921;SDS011;27609;51.002;5.354;2023-08-21T07:45:14;6.10;;;1.90;;
41921;SDS011;27609;51.002;5.354;2023-08-21T07:47:40;5.63;;;2.63;;
41921;SDS011;27609;51.002;5.354;2023-08-21T07:50:05;3.13;;;1.42;;
41921;SDS011;27609;51.002;5.354;2023-08-21T07:52:32;6.20;;;2.45;;
41921;SDS011;27609;51.002;5.354;2023-08-21T07:54:58;6.47;;;2.05;;
41921;SDS011;27609;51.002;5.354;2023-08-21T07:57:26;4.10;;;1.67;;
41921;SDS011;27609;51.002;5.354;2023-08-21T07:59:52;4.22;;;1.40;;
41921;SDS011;27609;51.002;5.354;2023-08-21T08:02:18;7.15;;;1.80;;
41921;SDS011;27609;51.002;5.354;2023-08-21T08:04:44;12.93;;;2.42;;
41921;SDS011;27609;51.002;5.354;2023-08-21T08:07:10;2.97;;;1.10;;
41921;SDS011;27609;51.002;5.354;2023-08-21T08:09:35;5.55;;;1.70;;
41921;SDS011;27609;51.002;5.354;2023-08-21T08:12:01;9.25;;;1.55;;
41921;SDS011;27609;51.002;5.354;2023-08-21T08:14:27;2.58;;;1.30;;
41921;SDS011;27609;51.002;5.354;2023-08-21T08:16:53;5.25;;;1.45;;
41921;SDS011;27609;51.002;5.354;2023-08-21T08:19:19;4.20;;;1.48;;
41921;SDS011;27609;51.002;5.354;2023-08-21T08:21:44;5.35;;;1.70;;
41921;SDS011;27609;51.002;5.354;2023-08-21T08:24:10;9.15;;;1.55;;
41921;SDS011;27609;51.002;5.354;2023-08-21T08:26:36;2.75;;;1.50;;
41921;SDS011;27609;51.002;5.354;2023-08-21T08:29:01;4.10;;;1.35;;
41921;SDS011;27609;51.002;5.354;2023-08-21T08:31:27;4.82;;;1.48;;
41921;SDS011;27609;51.002;5.354;2023-08-21T08:33:56;4.80;;;2.13;;
41921;SDS011;27609;51.002;5.354;2023-08-21T08:36:22;5.18;;;1.60;;
41921;SDS011;27609;51.002;5.354;2023-08-21T08:38:47;7.95;;;2.17;;
41921;SDS011;27609;51.002;5.354;2023-08-21T08:41:24;6.28;;;1.38;;
41921;SDS011;27609;51.002;5.354;2023-08-21T08:44:01;4.50;;;1.67;;
41921;SDS011;27609;51.002;5.354;2023-08-21T08:46:28;4.88;;;1.70;;
41921;SDS011;27609;51.002;5.354;2023-08-21T08:48:56;2.10;;;1.00;;
41921;SDS011;27609;51.002;5.354;2023-08-21T08:51:23;5.43;;;1.40;;
41921;SDS011;27609;51.002;5.354;2023-08-21T08:53:50;5.33;;;1.30;;
41921;SDS011;27609;51.002;5.354;2023-08-21T08:56:15;4.88;;;1.33;;
41921;SDS011;27609;51.002;5.354;2023-08-21T08:58:41;4.18;;;1.58;;
41921;SDS011;27609;51.002;5.354;2023-08-21T09:01:08;4.82;;;1.63;;
41921;SDS011;27609;51.002;5.354;2023-08-21T09:03:35;3.10;;;1.23;;
41921;SDS011;27609;51.002;5.354;2023-08-21T09:06:01;2.70;;;1.08;;
41921;SDS011;27609;51.002;5.354;2023-08-21T09:08:28;4.07;;;1.38;;
41921;SDS011;27609;51.002;5.354;2023-08-21T09:10:54;3.63;;;1.13;;
41921;SDS011;27609;51.002;5.354;2023-08-21T09:13:20;3.05;;;0.98;;
41921;SDS011;27609;51.002;5.354;2023-08-21T09:15:47;2.65;;;0.90;;
41921;SDS011;27609;51.002;5.354;2023-08-21T09:18:14;2.38;;;1.02;;
41921;SDS011;27609;51.002;5.354;2023-08-21T09:20:41;2.70;;;1.10;;
41921;SDS011;27609;51.002;5.354;2023-08-21T09:23:07;3.20;;;1.08;;
41921;SDS011;27609;51.002;5.354;2023-08-21T09:25:37;3.38;;;1.20;;
41921;SDS011;27609;51.002;5.354;2023-08-21T09:28:04;3.83;;;1.42;;
41921;SDS011;27609;51.002;5.354;2023-08-21T09:30:53;3.20;;;1.00;;
41921;SDS011;27609;51.002;5.354;2023-08-21T09:33:22;6.15;;;1.30;;
41921;SDS011;27609;51.002;5.354;2023-08-21T09:35:49;7.43;;;1.52;;
41921;SDS011;27609;51.002;5.354;2023-08-21T09:38:17;6.88;;;1.30;;
41921;SDS011;27609;51.002;5.354;2023-08-21T09:40:49;4.43;;;1.00;;
41921;SDS011;27609;51.002;5.354;2023-08-21T09:43:17;7.63;;;1.42;;
41921;SDS011;27609;51.002;5.354;2023-08-21T09:45:45;5.47;;;1.63;;
41921;SDS011;27609;51.002;5.354;2023-08-21T09:48:13;1.98;;;1.15;;
41921;SDS011;27609;51.002;5.354;2023-08-21T09:50:39;3.70;;;1.50;;
41921;SDS011;27609;51.002;5.354;2023-08-21T09:53:08;3.03;;;1.35;;
41921;SDS011;27609;51.002;5.354;2023-08-21T09:55:34;3.75;;;1.20;;
41921;SDS011;27609;51.002;5.354;2023-08-21T09:58:00;6.65;;;1.23;;
41921;SDS011;27609;51.002;5.354;2023-08-21T10:00:30;3.85;;;1.25;;
41921;SDS011;27609;51.002;5.354;2023-08-21T10:03:01;3.58;;;1.17;;
41921;SDS011;27609;51.002;5.354;2023-08-21T10:05:29;2.17;;;0.95;;
41921;SDS011;27609;51.002;5.354;2023-08-21T10:07:56;5.30;;;1.67;;
41921;SDS011;27609;51.002;5.354;2023-08-21T10:10:29;4.00;;;1.10;;
41921;SDS011;27609;51.002;5.354;2023-08-21T10:13:05;3.30;;;1.20;;
41921;SDS011;27609;51.002;5.354;2023-08-21T10:18:02;2.25;;;1.13;;
41921;SDS011;27609;51.002;5.354;2023-08-21T10:20:42;2.72;;;1.20;;
41921;SDS011;27609;51.002;5.354;2023-08-21T10:23:08;2.65;;;1.35;;
41921;SDS011;27609;51.002;5.354;2023-08-21T10:25:33;4.25;;;1.27;;
41921;SDS011;27609;51.002;5.354;2023-08-21T10:28:07;5.00;;;1.60;;
41921;SDS011;27609;51.002;5.354;2023-08-21T10:30:33;3.47;;;1.40;;
41921;SDS011;27609;51.002;5.354;2023-08-21T10:32:59;2.88;;;1.42;;
41921;SDS011;27609;51.002;5.354;2023-08-21T10:35:28;2.97;;;1.20;;
41921;SDS011;27609;51.002;5.354;2023-08-21T10:43:39;6.47;;;1.40;;
41921;SDS011;27609;51.002;5.354;2023-08-21T10:46:06;6.72;;;1.20;;
41921;SDS011;27609;51.002;5.354;2023-08-21T10:48:33;3.40;;;1.70;;
41921;SDS011;27609;51.002;5.354;2023-08-21T10:51:03;4.70;;;1.45;;
41921;SDS011;27609;51.002;5.354;2023-08-21T10:53:31;5.80;;;1.58;;
41921;SDS011;27609;51.002;5.354;2023-08-21T10:56:01;4.10;;;1.30;;
41921;SDS011;27609;51.002;5.354;2023-08-21T10:58:42;4.22;;;1.50;;
41921;SDS011;27609;51.002;5.354;2023-08-21T11:01:12;3.38;;;1.23;;
41921;SDS011;27609;51.002;5.354;2023-08-21T11:03:39;4.22;;;1.10;;
41921;SDS011;27609;51.002;5.354;2023-08-21T11:06:06;3.90;;;1.65;;
41921;SDS011;27609;51.002;5.354;2023-08-21T11:08:33;3.35;;;1.05;;
41921;SDS011;27609;51.002;5.354;2023-08-21T11:11:00;2.97;;;1.75;;
41921;SDS011;27609;51.002;5.354;2023-08-21T11:13:30;3.08;;;1.20;;
41921;SDS011;27609;51.002;5.354;2023-08-21T11:16:03;4.43;;;1.40;;
41921;SDS011;27609;51.002;5.354;2023-08-21T11:18:30;5.30;;;1.70;;
41921;SDS011;27609;51.002;5.354;2023-08-21T11:21:04;4.28;;;1.23;;
41921;SDS011;27609;51.002;5.354;2023-08-21T11:23:33;3.95;;;1.50;;
41921;SDS011;27609;51.002;5.354;2023-08-21T11:26:03;2.08;;;0.88;;
41921;SDS011;27609;51.002;5.354;2023-08-21T11:28:29;5.82;;;1.77;;
41921;SDS011;27609;51.002;5.354;2023-08-21T11:30:56;2.95;;;1.50;;
41921;SDS011;27609;51.002;5.354;2023-08-21T11:33:23;3.03;;;1.20;;
41921;SDS011;27609;51.002;5.354;2023-08-21T11:35:49;3.97;;;1.10;;
41921;SDS011;27609;51.002;5.354;2023-08-21T11:38:21;5.28;;;1.52;;
41921;SDS011;27609;51.002;5.354;2023-08-21T11:40:55;3.75;;;1.75;;
41921;SDS011;27609;51.002;5.354;2023-08-21T11:43:38;4.20;;;1.52;;
41921;SDS011;27609;51.002;5.354;2023-08-21T11:46:05;5.15;;;1.33;;
41921;SDS011;27609;51.002;5.354;2023-08-21T11:48:32;3.55;;;1.65;;
41921;SDS011;27609;51.002;5.354;2023-08-21T11:50:58;3.72;;;1.20;;
41921;SDS011;27609;51.002;5.354;2023-08-21T11:53:57;3.42;;;1.20;;
41921;SDS011;27609;51.002;5.354;2023-08-21T11:56:17;3.95;;;1.13;;
41921;SDS011;27609;51.002;5.354;2023-08-21T11:58:46;2.90;;;0.93;;
41921;SDS011;27609;51.002;5.354;2023-08-21T12:01:18;3.33;;;1.20;;
41921;SDS011;27609;51.002;5.354;2023-08-21T12:03:44;1.50;;;0.93;;
41921;SDS011;27609;51.002;5.354;2023-08-21T12:06:11;4.75;;;1.10;;
41921;SDS011;27609;51.002;5.354;2023-08-21T12:08:38;3.15;;;0.93;;
41921;SDS011;27609;51.002;5.354;2023-08-21T12:11:05;3.00;;;1.13;;
41921;SDS011;27609;51.002;5.354;2023-08-21T12:13:32;3.42;;;1.30;;
41921;SDS011;27609;51.002;5.354;2023-08-21T12:15:58;5.05;;;1.70;;
41921;SDS011;27609;51.002;5.354;2023-08-21T12:18:24;3.95;;;1.15;;
41921;SDS011;27609;51.002;5.354;2023-08-21T12:20:50;2.55;;;0.90;;
41921;SDS011;27609;51.002;5.354;2023-08-21T12:23:16;3.10;;;1.25;;
41921;SDS011;27609;51.002;5.354;2023-08-21T12:25:41;3.38;;;1.63;;
41921;SDS011;27609;51.002;5.354;2023-08-21T12:28:07;3.22;;;0.93;;
41921;SDS011;27609;51.002;5.354;2023-08-21T12:30:33;2.72;;;1.20;;
41921;SDS011;27609;51.002;5.354;2023-08-21T12:32:59;3.85;;;1.52;;
41921;SDS011;27609;51.002;5.354;2023-08-21T12:35:25;3.30;;;1.15;;
41921;SDS011;27609;51.002;5.354;2023-08-21T12:37:51;2.03;;;1.20;;
41921;SDS011;27609;51.002;5.354;2023-08-21T12:40:21;1.95;;;1.08;;
41921;SDS011;27609;51.002;5.354;2023-08-21T12:42:46;5.63;;;1.55;;
41921;SDS011;27609;51.002;5.354;2023-08-21T12:45:12;2.33;;;1.20;;
41921;SDS011;27609;51.002;5.354;2023-08-21T12:47:38;2.20;;;1.02;;
41921;SDS011;27609;51.002;5.354;2023-08-21T12:50:04;2.55;;;1.05;;
41921;SDS011;27609;51.002;5.354;2023-08-21T12:52:30;5.18;;;1.00;;
41921;SDS011;27609;51.002;5.354;2023-08-21T12:54:56;3.08;;;1.70;;
41921;SDS011;27609;51.002;5.354;2023-08-21T12:57:22;3.60;;;1.15;;
41921;SDS011;27609;51.002;5.354;2023-08-21T12:59:47;7.25;;;1.38;;
41921;SDS011;27609;51.002;5.354;2023-08-21T13:02:13;3.65;;;1.45;;
41921;SDS011;27609;51.002;5.354;2023-08-21T13:04:39;3.67;;;1.33;;
41921;SDS011;27609;51.002;5.354;2023-08-21T13:07:04;4.78;;;1.20;;
41921;SDS011;27609;51.002;5.354;2023-08-21T13:09:30;5.40;;;1.20;;
41921;SDS011;27609;51.002;5.354;2023-08-21T13:11:56;5.82;;;1.40;;
41921;SDS011;27609;51.002;5.354;2023-08-21T13:14:21;2.92;;;1.10;;
41921;SDS011;27609;51.002;5.354;2023-08-21T13:16:47;8.02;;;1.20;;
41921;SDS011;27609;51.002;5.354;2023-08-21T13:19:13;3.72;;;1.00;;
41921;SDS011;27609;51.002;5.354;2023-08-21T13:21:38;2.13;;;1.13;;
41921;SDS011;27609;51.002;5.354;2023-08-21T13:24:04;2.72;;;1.00;;
41921;SDS011;27609;51.002;5.354;2023-08-21T13:26:30;2.33;;;1.20;;
41921;SDS011;27609;51.002;5.354;2023-08-21T13:28:56;2.95;;;1.08;;
41921;SDS011;27609;51.002;5.354;2023-08-21T13:31:22;4.20;;;1.38;;
41921;SDS011;27609;51.002;5.354;2023-08-21T13:33:48;3.17;;;0.98;;
41921;SDS011;27609;51.002;5.354;2023-08-21T13:36:15;4.07;;;1.00;;
41921;SDS011;27609;51.002;5.354;2023-08-21T13:38:42;4.47;;;1.30;;
41921;SDS011;27609;51.002;5.354;2023-08-21T13:41:07;3.58;;;1.33;;
41921;SDS011;27609;51.002;5.354;2023-08-21T13:43:34;3.33;;;1.23;;
41921;SDS011;27609;51.002;5.354;2023-08-21T13:46:00;5.20;;;1.10;;
41921;SDS011;27609;51.002;5.354;2023-08-21T13:48:29;4.15;;;1.27;;
41921;SDS011;27609;51.002;5.354;2023-08-21T13:50:55;2.30;;;1.02;;
41921;SDS011;27609;51.002;5.354;2023-08-21T13:53:21;3.67;;;1.17;;
41921;SDS011;27609;51.002;5.354;2023-08-21T13:55:46;1.40;;;0.90;;
41921;SDS011;27609;51.002;5.354;2023-08-21T13:58:12;6.00;;;1.00;;
41921;SDS011;27609;51.002;5.354;2023-08-21T14:00:38;5.53;;;1.52;;
41921;SDS011;27609;51.002;5.354;2023-08-21T14:03:04;6.13;;;1.17;;
41921;SDS011;27609;51.002;5.354;2023-08-21T14:05:30;4.88;;;1.10;;
41921;SDS011;27609;51.002;5.354;2023-08-21T14:07:56;3.08;;;1.52;;
41921;SDS011;27609;51.002;5.354;2023-08-21T14:10:22;3.25;;;1.25;;
41921;SDS011;27609;51.002;5.354;2023-08-21T14:12:48;4.32;;;1.27;;
41921;SDS011;27609;51.002;5.354;2023-08-21T14:15:14;4.32;;;1.10;;
41921;SDS011;27609;51.002;5.354;2023-08-21T14:17:39;3.53;;;1.33;;
41921;SDS011;27609;51.002;5.354;2023-08-21T14:20:06;2.78;;;1.15;;
41921;SDS011;27609;51.002;5.354;2023-08-21T14:22:32;3.55;;;1.08;;
41921;SDS011;27609;51.002;5.354;2023-08-21T14:24:58;2.85;;;1.42;;
41921;SDS011;27609;51.002;5.354;2023-08-21T14:27:24;3.70;;;1.23;;
41921;SDS011;27609;51.002;5.354;2023-08-21T14:29:49;4.60;;;1.35;;
41921;SDS011;27609;51.002;5.354;2023-08-21T14:32:15;3.47;;;1.45;;
41921;SDS011;27609;51.002;5.354;2023-08-21T14:34:41;8.50;;;1.52;;
41921;SDS011;27609;51.002;5.354;2023-08-21T14:37:07;5.45;;;1.33;;
41921;SDS011;27609;51.002;5.354;2023-08-21T14:39:32;4.78;;;1.77;;
41921;SDS011;27609;51.002;5.354;2023-08-21T14:41:58;3.13;;;1.10;;
41921;SDS011;27609;51.002;5.354;2023-08-21T14:44:24;2.42;;;1.35;;
41921;SDS011;27609;51.002;5.354;2023-08-21T14:46:53;3.47;;;1.50;;
41921;SDS011;27609;51.002;5.354;2023-08-21T14:49:21;4.22;;;1.30;;
41921;SDS011;27609;51.002;5.354;2023-08-21T14:51:47;4.13;;;1.20;;
41921;SDS011;27609;51.002;5.354;2023-08-21T14:54:13;4.60;;;1.50;;
41921;SDS011;27609;51.002;5.354;2023-08-21T14:56:38;4.70;;;1.25;;
41921;SDS011;27609;51.002;5.354;2023-08-21T14:59:04;3.58;;;1.40;;
41921;SDS011;27609;51.002;5.354;2023-08-21T15:01:30;4.40;;;1.27;;